createdAt,value
2017-09-15T00:02:17.385Z,5.43
2017-09-15T00:04:44.833Z,4.67
2017-09-15T00:07:12.306Z,4.77
2017-09-15T00:09:39.753Z,7.97
2017-09-15T00:12:07.211Z,5.40
2017-09-15T00:14:34.671Z,9.63
2017-09-15T00:17:02.130Z,6.17
2017-09-15T00:19:29.599Z,3.97
2017-09-15T00:21:57.037Z,5.77
2017-09-15T00:24:24.509Z,8.10
2017-09-15T00:26:51.961Z,6.70
2017-09-15T00:29:19.426Z,6.33
2017-09-15T00:31:46.881Z,5.23
2017-09-15T00:34:14.334Z,4.17
2017-09-15T00:36:41.782Z,4.90
2017-09-15T00:39:09.994Z,6.10
2017-09-15T00:41:37.442Z,8.30
2017-09-15T00:44:04.890Z,3.83
2017-09-15T00:46:32.341Z,6.60
2017-09-15T00:48:59.797Z,4.00
2017-09-15T00:51:27.254Z,4.60
2017-09-15T00:53:54.722Z,5.53
2017-09-15T00:56:22.174Z,5.17
2017-09-15T00:58:49.617Z,5.70
2017-09-15T01:01:17.094Z,5.57
2017-09-15T01:03:45.305Z,5.27
2017-09-15T01:06:12.753Z,6.93
2017-09-15T01:08:40.198Z,2.87
2017-09-15T01:11:07.641Z,7.33
2017-09-15T01:13:35.856Z,4.63
2017-09-15T01:16:04.073Z,2.80
2017-09-15T01:18:31.530Z,4.47
2017-09-15T01:20:58.985Z,4.50
2017-09-15T01:23:26.429Z,5.20
2017-09-15T01:25:53.893Z,3.73
2017-09-15T01:28:21.343Z,7.50
2017-09-15T01:30:48.805Z,8.07
2017-09-15T01:33:16.262Z,4.73
2017-09-15T01:35:43.731Z,4.73
2017-09-15T01:38:11.186Z,4.27
2017-09-15T01:40:38.649Z,2.50
2017-09-15T01:43:06.093Z,4.93
2017-09-15T01:45:33.555Z,8.50
2017-09-15T01:48:01.065Z,9.20
2017-09-15T01:50:28.537Z,8.03
2017-09-15T01:52:56.749Z,6.50
2017-09-15T01:55:24.212Z,3.37
2017-09-15T01:57:51.665Z,4.57
2017-09-15T02:00:19.121Z,6.07
2017-09-15T02:02:46.581Z,4.70
2017-09-15T02:05:14.014Z,6.43
2017-09-15T02:07:41.474Z,4.33
2017-09-15T02:10:08.930Z,7.13
2017-09-15T02:12:36.386Z,3.57
2017-09-15T02:15:03.827Z,3.40
2017-09-15T02:17:31.281Z,5.73
2017-09-15T02:19:58.733Z,3.30
2017-09-15T02:22:26.974Z,4.10
2017-09-15T02:24:54.432Z,5.27
2017-09-15T02:27:21.861Z,6.50
2017-09-15T02:29:49.318Z,3.50
2017-09-15T02:32:16.758Z,5.27
2017-09-15T02:34:44.208Z,2.60
2017-09-15T02:37:12.422Z,3.50
2017-09-15T02:39:39.874Z,3.67
2017-09-15T02:42:07.323Z,7.70
2017-09-15T02:44:35.550Z,4.03
2017-09-15T02:47:03.766Z,2.20
2017-09-15T02:49:31.226Z,6.60
2017-09-15T02:51:58.685Z,4.67
2017-09-15T02:54:26.142Z,3.07
2017-09-15T02:56:53.586Z,6.77
2017-09-15T02:59:21.053Z,3.83
2017-09-15T03:01:48.955Z,2.53
2017-09-15T03:04:16.409Z,3.73
2017-09-15T03:06:43.849Z,3.57
2017-09-15T03:09:11.315Z,5.63
2017-09-15T03:11:38.772Z,4.13
2017-09-15T03:14:06.990Z,5.27
2017-09-15T03:16:35.211Z,3.43
2017-09-15T03:19:03.421Z,2.70
2017-09-15T03:21:30.883Z,2.87
2017-09-15T03:23:58.320Z,3.63
2017-09-15T03:26:25.778Z,3.17
2017-09-15T03:28:53.228Z,5.40
2017-09-15T03:31:20.678Z,3.80
2017-09-15T03:33:48.894Z,3.73
2017-09-15T03:36:16.354Z,5.50
2017-09-15T03:38:44.569Z,4.90
2017-09-15T03:41:12.025Z,3.60
2017-09-15T03:43:40.245Z,3.63
2017-09-15T03:46:07.706Z,3.33
2017-09-15T03:48:35.158Z,3.53
2017-09-15T03:51:02.616Z,4.10
2017-09-15T03:53:30.075Z,3.23
2017-09-15T03:55:57.544Z,2.50
2017-09-15T03:58:25.780Z,3.67
2017-09-15T04:00:53.243Z,1.70
2017-09-15T04:03:20.715Z,2.93
2017-09-15T04:05:48.158Z,3.80
2017-09-15T04:08:15.626Z,2.93
2017-09-15T04:10:43.088Z,3.17
2017-09-15T04:13:10.545Z,1.90
2017-09-15T04:15:38.012Z,2.53
2017-09-15T04:18:05.462Z,2.93
2017-09-15T04:20:33.675Z,2.63
2017-09-15T04:23:01.142Z,3.80
2017-09-15T04:25:29.534Z,3.23
2017-09-15T04:27:58.070Z,2.87
2017-09-15T04:30:26.298Z,2.10
2017-09-15T04:32:53.734Z,5.30
2017-09-15T04:35:21.190Z,5.70
2017-09-15T04:37:48.637Z,2.63
2017-09-15T04:40:16.864Z,4.73
2017-09-15T04:42:44.309Z,3.40
2017-09-15T04:45:11.766Z,3.13
2017-09-15T04:47:39.218Z,1.73
2017-09-15T04:52:41.206Z,5.03
2017-09-15T04:55:08.661Z,3.63
2017-09-15T04:57:36.111Z,4.00
2017-09-15T05:00:03.573Z,2.43
2017-09-15T05:02:31.037Z,2.50
2017-09-15T05:04:58.500Z,3.20
2017-09-15T05:07:25.952Z,6.33
2017-09-15T05:09:53.401Z,4.27
2017-09-15T05:12:20.857Z,8.20
2017-09-15T05:14:48.318Z,4.83
2017-09-15T05:17:15.770Z,2.17
2017-09-15T05:19:43.272Z,2.40
2017-09-15T05:22:10.717Z,3.10
2017-09-15T05:24:38.180Z,2.67
2017-09-15T05:27:05.629Z,2.20
2017-09-15T05:29:33.884Z,2.00
2017-09-15T05:32:01.336Z,6.37
2017-09-15T05:34:28.791Z,3.50
2017-09-15T05:36:56.246Z,2.50
2017-09-15T05:39:23.698Z,2.67
2017-09-15T05:41:51.932Z,1.93
2017-09-15T05:44:19.378Z,3.10
2017-09-15T05:46:47.610Z,4.70
2017-09-15T05:49:15.052Z,1.83
2017-09-15T05:51:42.532Z,2.67
2017-09-15T05:54:10.037Z,2.87
2017-09-15T05:56:37.478Z,2.10
2017-09-15T05:59:04.922Z,3.37
2017-09-15T06:01:32.380Z,2.70
2017-09-15T06:03:59.846Z,3.83
2017-09-15T06:06:28.086Z,3.40
2017-09-15T06:08:55.534Z,3.23
2017-09-15T06:11:23.001Z,2.60
2017-09-15T06:13:50.454Z,2.23
2017-09-15T06:16:17.922Z,4.20
2017-09-15T06:18:45.368Z,2.50
2017-09-15T06:21:12.805Z,4.57
2017-09-15T06:23:41.034Z,5.37
2017-09-15T06:26:08.487Z,4.03
2017-09-15T06:28:35.958Z,2.33
2017-09-15T06:31:03.414Z,2.23
2017-09-15T06:33:30.870Z,1.70
2017-09-15T06:35:58.318Z,2.47
2017-09-15T06:38:25.769Z,3.13
2017-09-15T06:40:53.250Z,2.37
2017-09-15T06:43:20.695Z,2.47
2017-09-15T06:45:48.142Z,1.63
2017-09-15T06:48:16.356Z,4.83
2017-09-15T06:50:43.798Z,3.27
2017-09-15T06:53:11.253Z,6.30
2017-09-15T06:55:38.698Z,4.23
2017-09-15T06:58:06.183Z,4.97
2017-09-15T07:00:33.622Z,6.47
2017-09-15T07:03:01.084Z,2.40
2017-09-15T07:05:28.509Z,2.33
2017-09-15T07:07:55.995Z,4.30
2017-09-15T07:10:23.430Z,3.50
2017-09-15T07:12:50.870Z,3.23
2017-09-15T07:15:18.333Z,2.60
2017-09-15T07:17:45.777Z,4.67
2017-09-15T07:20:14.460Z,2.00
2017-09-15T07:22:41.907Z,2.33
2017-09-15T07:25:09.353Z,2.47
2017-09-15T07:27:37.572Z,3.27
2017-09-15T07:30:05.031Z,2.30
2017-09-15T07:32:33.267Z,2.50
2017-09-15T07:35:01.479Z,4.00
2017-09-15T07:37:28.930Z,2.30
2017-09-15T07:39:57.150Z,2.13
2017-09-15T07:42:24.593Z,3.37
2017-09-15T07:44:52.045Z,2.83
2017-09-15T07:47:19.501Z,3.73
2017-09-15T07:49:46.975Z,2.73
2017-09-15T07:52:14.430Z,2.97
2017-09-15T07:54:41.893Z,5.60
2017-09-15T07:57:09.354Z,5.50
2017-09-15T07:59:37.594Z,5.60
2017-09-15T08:02:05.044Z,5.33
2017-09-15T08:04:32.522Z,7.80
2017-09-15T08:07:00.742Z,6.57
2017-09-15T08:09:28.219Z,7.70
2017-09-15T08:11:55.683Z,7.30
2017-09-15T08:14:23.146Z,9.57
2017-09-15T08:16:50.633Z,7.63
2017-09-15T08:19:18.086Z,11.37
2017-09-15T08:21:45.534Z,7.63
2017-09-15T08:24:13.754Z,13.90
2017-09-15T08:26:42.014Z,9.53
2017-09-15T08:29:10.234Z,6.67
2017-09-15T08:31:37.994Z,7.47
2017-09-15T08:34:05.452Z,7.17
2017-09-15T08:36:32.913Z,9.97
2017-09-15T08:39:00.374Z,10.03
2017-09-15T08:41:27.829Z,6.47
2017-09-15T08:43:55.288Z,6.87
2017-09-15T08:46:22.731Z,8.10
2017-09-15T08:48:50.189Z,7.57
2017-09-15T08:51:18.405Z,8.70
2017-09-15T08:53:45.866Z,7.73
2017-09-15T08:56:13.312Z,6.37
2017-09-15T08:58:40.793Z,7.37
2017-09-15T09:01:08.230Z,9.80
2017-09-15T09:03:35.689Z,6.40
2017-09-15T09:06:03.162Z,5.93
2017-09-15T09:08:30.614Z,7.77
2017-09-15T09:10:58.062Z,5.20
2017-09-15T09:13:25.527Z,6.50
2017-09-15T09:15:52.985Z,5.20
2017-09-15T09:18:20.437Z,7.30
2017-09-15T09:20:51.553Z,7.80
2017-09-15T09:23:19.233Z,7.00
2017-09-15T09:25:46.685Z,5.27
2017-09-15T09:28:14.150Z,6.80
2017-09-15T09:30:44.461Z,6.37
2017-09-15T09:33:11.898Z,7.43
2017-09-15T09:35:39.357Z,7.93
2017-09-15T09:38:07.581Z,7.03
2017-09-15T09:40:35.035Z,5.90
2017-09-15T09:43:02.483Z,6.50
2017-09-15T09:45:29.945Z,6.10
2017-09-15T09:47:57.394Z,6.03
2017-09-15T09:50:24.853Z,5.97
2017-09-15T09:52:52.298Z,4.30
2017-09-15T09:55:19.753Z,4.10
2017-09-15T09:57:47.206Z,6.23
2017-09-15T10:00:14.699Z,6.10
2017-09-15T10:02:42.126Z,6.00
2017-09-15T10:05:09.590Z,6.53
2017-09-15T10:07:37.046Z,6.83
2017-09-15T10:10:04.495Z,5.13
2017-09-15T10:12:31.950Z,4.03
2017-09-15T10:14:59.396Z,4.20
2017-09-15T10:17:26.884Z,4.87
2017-09-15T10:19:54.302Z,4.77
2017-09-15T10:22:21.757Z,4.07
2017-09-15T10:24:49.210Z,4.77
2017-09-15T10:27:16.662Z,4.63
2017-09-15T10:29:44.107Z,4.83
2017-09-15T10:32:12.317Z,4.00
2017-09-15T10:34:39.802Z,3.93
2017-09-15T10:37:07.259Z,3.03
2017-09-15T10:39:34.730Z,7.87
2017-09-15T10:42:02.186Z,3.07
2017-09-15T10:44:29.636Z,3.67
2017-09-15T10:46:57.090Z,2.73
2017-09-15T10:49:24.545Z,4.93
2017-09-15T10:51:52.006Z,2.43
2017-09-15T10:54:19.454Z,2.73
2017-09-15T10:56:46.922Z,6.70
2017-09-15T10:59:19.905Z,3.37
2017-09-15T11:01:47.381Z,3.07
2017-09-15T11:04:15.598Z,2.90
2017-09-15T11:06:43.055Z,2.17
2017-09-15T11:09:10.514Z,2.20
2017-09-15T11:11:37.963Z,2.67
2017-09-15T11:14:05.426Z,1.97
2017-09-15T11:16:32.865Z,2.60
2017-09-15T11:19:00.317Z,2.60
2017-09-15T11:21:27.762Z,2.17
2017-09-15T11:23:55.985Z,1.80
2017-09-15T11:26:23.443Z,1.97
2017-09-15T11:28:50.901Z,2.40
2017-09-15T11:31:18.341Z,2.00
2017-09-15T11:33:45.802Z,1.90
2017-09-15T11:36:13.255Z,2.40
2017-09-15T11:38:40.715Z,1.83
2017-09-15T11:41:08.169Z,3.80
2017-09-15T11:43:35.635Z,1.80
2017-09-15T11:46:03.080Z,2.07
2017-09-15T11:48:30.536Z,3.30
2017-09-15T11:50:58.000Z,3.23
2017-09-15T11:53:25.451Z,2.40
2017-09-15T11:55:52.904Z,1.90
2017-09-15T11:58:20.345Z,1.60
2017-09-15T12:00:48.565Z,2.93
2017-09-15T12:03:16.010Z,1.70
2017-09-15T12:05:43.466Z,1.60
2017-09-15T12:08:10.918Z,1.70
2017-09-15T12:10:38.377Z,2.03
2017-09-15T12:13:05.823Z,2.90
2017-09-15T12:15:33.291Z,2.17
2017-09-15T12:18:00.745Z,3.57
2017-09-15T12:20:28.213Z,1.53
2017-09-15T12:22:55.666Z,2.80
2017-09-15T12:25:23.879Z,2.17
2017-09-15T12:27:51.321Z,1.53
2017-09-15T12:30:18.802Z,1.60
2017-09-15T12:32:46.251Z,1.60
2017-09-15T12:35:13.698Z,1.70
2017-09-15T12:37:41.155Z,3.90
2017-09-15T12:40:08.598Z,2.77
2017-09-15T12:42:36.058Z,1.40
2017-09-15T12:45:03.506Z,2.20
2017-09-15T12:47:30.967Z,1.40
2017-09-15T12:49:58.414Z,1.43
2017-09-15T12:52:25.866Z,1.67
2017-09-15T12:54:53.323Z,1.20
2017-09-15T12:57:21.541Z,1.50
2017-09-15T12:59:49.001Z,2.47
2017-09-15T13:02:16.447Z,0.93
2017-09-15T13:04:43.889Z,1.20
2017-09-15T13:07:11.369Z,1.23
2017-09-15T13:09:38.817Z,1.60
2017-09-15T13:12:06.269Z,1.30
2017-09-15T13:14:33.714Z,1.40
2017-09-15T13:17:01.170Z,1.83
2017-09-15T13:19:28.640Z,1.40
2017-09-15T13:21:56.086Z,1.80
2017-09-15T13:24:23.542Z,1.20
2017-09-15T13:26:50.989Z,1.77
2017-09-15T13:29:18.443Z,1.50
2017-09-15T13:31:45.905Z,2.93
2017-09-15T13:34:13.362Z,2.20
2017-09-15T13:36:40.815Z,1.70
2017-09-15T13:39:08.270Z,1.57
2017-09-15T13:41:35.718Z,1.73
2017-09-15T13:44:03.938Z,2.30
2017-09-15T13:46:31.390Z,1.53
2017-09-15T13:48:58.854Z,1.67
2017-09-15T13:51:26.293Z,1.47
2017-09-15T13:53:53.747Z,1.30
2017-09-15T13:56:21.197Z,1.20
2017-09-15T13:58:48.644Z,2.50
2017-09-15T14:01:16.102Z,1.87
2017-09-15T14:03:43.546Z,1.40
2017-09-15T14:06:11.013Z,1.50
2017-09-15T14:08:38.460Z,1.47
2017-09-15T14:11:06.676Z,1.33
2017-09-15T14:13:34.122Z,2.87
2017-09-15T14:16:02.341Z,1.40
2017-09-15T14:18:30.554Z,1.60
2017-09-15T14:20:58.011Z,1.20
2017-09-15T14:23:25.474Z,1.20
2017-09-15T14:25:52.934Z,1.27
2017-09-15T14:28:20.391Z,2.97
2017-09-15T14:30:47.859Z,1.33
2017-09-15T14:33:15.302Z,1.50
2017-09-15T14:35:42.770Z,1.10
2017-09-15T14:38:10.219Z,1.70
2017-09-15T14:40:37.673Z,1.37
2017-09-15T14:43:05.134Z,1.30
2017-09-15T14:45:32.577Z,2.33
2017-09-15T14:48:00.032Z,1.40
2017-09-15T14:50:27.474Z,1.53
2017-09-15T14:52:54.929Z,1.40
2017-09-15T14:55:22.391Z,1.50
2017-09-15T14:57:50.628Z,1.43
2017-09-15T15:00:18.081Z,1.50
2017-09-15T15:02:46.300Z,2.20
2017-09-15T15:05:13.741Z,1.47
2017-09-15T15:07:41.973Z,2.00
2017-09-15T15:10:09.422Z,1.30
2017-09-15T15:12:36.872Z,1.50
2017-09-15T15:15:04.321Z,1.60
2017-09-15T15:17:31.794Z,2.77
2017-09-15T15:19:59.242Z,1.90
2017-09-15T15:22:26.751Z,2.97
2017-09-15T15:24:54.970Z,2.67
2017-09-15T15:27:22.414Z,2.23
2017-09-15T15:29:49.874Z,3.70
2017-09-15T15:32:17.317Z,2.10
2017-09-15T15:34:44.780Z,1.90
2017-09-15T15:37:12.229Z,1.57
2017-09-15T15:39:40.462Z,1.90
2017-09-15T15:42:07.911Z,2.00
2017-09-15T15:44:35.373Z,2.20
2017-09-15T15:47:02.826Z,3.00
2017-09-15T15:49:30.287Z,1.40
2017-09-15T15:51:57.750Z,1.40
2017-09-15T15:54:26.005Z,1.40
2017-09-15T15:56:53.452Z,1.50
2017-09-15T15:59:20.914Z,1.50
2017-09-15T16:01:48.394Z,1.87
2017-09-15T16:04:15.842Z,1.43
2017-09-15T16:06:43.302Z,2.03
2017-09-15T16:09:10.769Z,1.97
2017-09-15T16:11:38.227Z,1.47
2017-09-15T16:14:05.678Z,1.40
2017-09-15T16:16:33.128Z,1.40
2017-09-15T16:19:00.591Z,1.50
2017-09-15T16:21:28.049Z,1.80
2017-09-15T16:23:55.502Z,1.40
2017-09-15T16:26:22.958Z,2.00
2017-09-15T16:28:50.405Z,1.77
2017-09-15T16:31:17.865Z,1.40
2017-09-15T16:33:45.318Z,1.43
2017-09-15T16:36:12.777Z,1.60
2017-09-15T16:38:45.776Z,1.80
2017-09-15T16:41:18.902Z,1.57
2017-09-15T16:43:52.035Z,1.40
2017-09-15T16:46:25.029Z,1.70
2017-09-15T16:48:58.019Z,1.60
2017-09-15T16:51:25.476Z,1.60
2017-09-15T16:53:53.339Z,1.77
2017-09-15T16:56:20.812Z,1.70
2017-09-15T16:58:49.018Z,3.37
2017-09-15T17:01:17.245Z,1.60
2017-09-15T17:03:44.699Z,1.60
2017-09-15T17:06:12.158Z,1.73
2017-09-15T17:08:39.614Z,1.43
2017-09-15T17:11:07.070Z,1.70
2017-09-15T17:13:34.530Z,1.80
2017-09-15T17:16:01.990Z,2.73
2017-09-15T17:18:29.481Z,2.30
2017-09-15T17:20:56.917Z,2.53
2017-09-15T17:23:24.377Z,2.70
2017-09-15T17:25:51.827Z,2.53
2017-09-15T17:28:20.046Z,2.33
2017-09-15T17:30:47.493Z,2.97
2017-09-15T17:33:15.719Z,3.07
2017-09-15T17:35:43.938Z,2.60
2017-09-15T17:38:11.385Z,2.77
2017-09-15T17:40:38.845Z,3.10
2017-09-15T17:43:06.303Z,6.80
2017-09-15T17:45:34.509Z,2.83
2017-09-15T17:48:02.754Z,2.80
2017-09-15T17:50:30.213Z,3.17
2017-09-15T17:52:57.649Z,2.87
2017-09-15T17:55:25.102Z,2.30
2017-09-15T17:57:52.554Z,2.60
2017-09-15T18:00:20.762Z,2.80
2017-09-15T18:02:48.239Z,2.77
2017-09-15T18:05:16.465Z,2.90
2017-09-15T18:07:43.912Z,2.77
2017-09-15T18:10:11.366Z,3.00
2017-09-15T18:12:39.577Z,3.00
2017-09-15T18:15:07.034Z,3.47
2017-09-15T18:17:35.258Z,3.50
2017-09-15T18:20:03.478Z,4.30
2017-09-15T18:22:30.922Z,5.53
2017-09-15T18:24:58.381Z,3.47
2017-09-15T18:27:25.822Z,4.37
2017-09-15T18:29:53.286Z,4.50
2017-09-15T18:32:20.739Z,6.27
2017-09-15T18:34:48.198Z,4.30
2017-09-15T18:37:16.418Z,3.73
2017-09-15T18:39:44.290Z,4.40
2017-09-15T18:42:12.522Z,4.27
2017-09-15T18:44:39.975Z,3.60
2017-09-15T18:47:07.421Z,5.03
2017-09-15T18:49:34.878Z,4.10
2017-09-15T18:52:03.098Z,4.13
2017-09-15T18:54:30.541Z,4.10
2017-09-15T18:56:58.006Z,3.70
2017-09-15T18:59:25.448Z,4.40
2017-09-15T19:01:52.904Z,3.40
2017-09-15T19:04:20.350Z,3.30
2017-09-15T19:06:48.562Z,3.17
2017-09-15T19:09:16.006Z,3.70
2017-09-15T19:11:43.467Z,3.60
2017-09-15T19:14:10.917Z,3.03
2017-09-15T19:16:38.399Z,3.47
2017-09-15T19:19:05.837Z,3.33
2017-09-15T19:21:33.288Z,3.50
2017-09-15T19:24:00.945Z,4.20
2017-09-15T19:26:28.394Z,3.30
2017-09-15T19:28:55.848Z,3.77
2017-09-15T19:31:23.289Z,3.80
2017-09-15T19:33:50.758Z,3.07
2017-09-15T19:36:18.195Z,3.17
2017-09-15T19:38:45.654Z,3.10
2017-09-15T19:41:13.119Z,3.53
2017-09-15T19:43:40.574Z,3.07
2017-09-15T19:46:08.039Z,3.23
2017-09-15T19:48:36.254Z,3.47
2017-09-15T19:51:03.703Z,3.20
2017-09-15T19:53:31.163Z,3.40
2017-09-15T19:56:00.119Z,3.40
2017-09-15T19:58:28.346Z,3.10
2017-09-15T20:00:56.564Z,4.80
2017-09-15T20:03:24.031Z,3.23
2017-09-15T20:05:52.269Z,2.73
2017-09-15T20:08:20.493Z,2.93
2017-09-15T20:10:48.716Z,2.83
2017-09-15T20:13:16.930Z,3.10
2017-09-15T20:15:44.385Z,2.70
2017-09-15T20:18:11.849Z,2.70
2017-09-15T20:20:39.313Z,4.10
2017-09-15T20:23:06.756Z,4.30
2017-09-15T20:25:34.197Z,5.77
2017-09-15T20:28:01.678Z,6.03
2017-09-15T20:30:29.891Z,4.30
2017-09-15T20:32:57.346Z,5.10
2017-09-15T20:35:24.802Z,5.67
2017-09-15T20:37:52.263Z,5.80
2017-09-15T20:40:19.772Z,5.80
2017-09-15T20:42:47.220Z,6.23
2017-09-15T20:45:14.679Z,5.23
2017-09-15T20:47:42.126Z,6.03
2017-09-15T20:50:09.578Z,5.27
2017-09-15T20:52:37.038Z,5.60
2017-09-15T20:55:04.492Z,4.20
2017-09-15T20:57:32.706Z,4.90
2017-09-15T21:00:00.161Z,5.90
2017-09-15T21:02:27.609Z,5.10
2017-09-15T21:04:55.054Z,5.27
2017-09-15T21:07:22.513Z,4.50
2017-09-15T21:09:49.957Z,5.97
2017-09-15T21:12:18.190Z,4.70
2017-09-15T21:14:45.656Z,4.50
2017-09-15T21:17:13.115Z,4.37
2017-09-15T21:19:40.559Z,4.40
2017-09-15T21:22:08.018Z,6.00
2017-09-15T21:24:35.473Z,7.50
2017-09-15T21:27:02.938Z,4.10
2017-09-15T21:29:30.381Z,4.30
2017-09-15T21:31:57.838Z,4.77
2017-09-15T21:34:25.298Z,4.03
2017-09-15T21:36:52.755Z,4.23
2017-09-15T21:39:20.210Z,3.53
2017-09-15T21:41:47.656Z,4.87
2017-09-15T21:44:15.113Z,4.20
2017-09-15T21:46:42.555Z,4.23
2017-09-15T21:49:10.777Z,4.20
2017-09-15T21:51:38.222Z,3.90
2017-09-15T21:54:05.682Z,3.70
2017-09-15T21:56:33.121Z,4.30
2017-09-15T21:59:00.606Z,3.53
2017-09-15T22:01:28.106Z,4.07
2017-09-15T22:04:02.118Z,3.70
2017-09-15T22:06:29.561Z,3.43
2017-09-15T22:08:57.795Z,3.70
2017-09-15T22:11:25.246Z,5.67
2017-09-15T22:13:53.359Z,3.70
2017-09-15T22:16:20.814Z,3.03
2017-09-15T22:18:48.267Z,3.53
2017-09-15T22:21:16.483Z,3.47
2017-09-15T22:23:44.693Z,4.43
2017-09-15T22:26:12.153Z,3.73
2017-09-15T22:28:40.373Z,3.63
2017-09-15T22:31:07.826Z,3.40
2017-09-15T22:33:35.270Z,3.63
2017-09-15T22:36:02.722Z,3.13
2017-09-15T22:38:30.161Z,3.80
2017-09-15T22:40:58.408Z,3.63
2017-09-15T22:43:26.618Z,3.77
2017-09-15T22:45:54.850Z,3.40
2017-09-15T22:48:22.298Z,2.93
2017-09-15T22:50:49.742Z,4.07
2017-09-15T22:53:17.198Z,3.60
2017-09-15T22:55:44.650Z,3.73
2017-09-15T22:58:12.114Z,3.67
2017-09-15T23:00:39.577Z,3.50
2017-09-15T23:03:07.031Z,5.93
2017-09-15T23:05:34.474Z,3.43
2017-09-15T23:08:01.948Z,3.27
2017-09-15T23:10:29.469Z,3.40
2017-09-15T23:12:56.917Z,3.27
2017-09-15T23:15:25.147Z,3.83
2017-09-15T23:17:52.593Z,3.07
2017-09-15T23:20:20.046Z,4.03
2017-09-15T23:22:47.510Z,4.97
2017-09-15T23:25:15.725Z,3.63
2017-09-15T23:27:43.182Z,3.20
2017-09-15T23:30:10.637Z,3.73
2017-09-15T23:32:38.094Z,2.90
2017-09-15T23:35:05.550Z,4.63
2017-09-15T23:37:33.006Z,3.37
2017-09-15T23:40:00.453Z,4.13
2017-09-15T23:42:27.898Z,3.37
2017-09-15T23:44:55.345Z,3.37
2017-09-15T23:47:22.794Z,3.30
2017-09-15T23:49:50.258Z,3.67
2017-09-15T23:52:17.733Z,3.63
2017-09-15T23:54:45.185Z,3.03
2017-09-15T23:57:12.650Z,2.97
2017-09-15T23:59:40.861Z,3.00
